sensor_id;sensor_type;location;lat;lon;timestamp;P1;durP1;ratioP1;P2;durP2;ratioP2
15354;SDS011;7777;52.254;9.618;2023-02-23T00:01:38;15.77;;;9.63;;
15354;SDS011;7777;52.254;9.618;2023-02-23T00:04:06;13.93;;;9.60;;
15354;SDS011;7777;52.254;9.618;2023-02-23T00:06:33;11.17;;;8.90;;
15354;SDS011;7777;52.254;9.618;2023-02-23T00:09:00;13.70;;;8.30;;
15354;SDS011;7777;52.254;9.618;2023-02-23T00:11:31;14.97;;;11.00;;
15354;SDS011;7777;52.254;9.618;2023-02-23T00:13:58;14.23;;;9.87;;
15354;SDS011;7777;52.254;9.618;2023-02-23T00:16:25;15.77;;;11.43;;
15354;SDS011;7777;52.254;9.618;2023-02-23T00:18:52;15.93;;;10.53;;
15354;SDS011;7777;52.254;9.618;2023-02-23T00:21:30;19.93;;;12.70;;
15354;SDS011;7777;52.254;9.618;2023-02-23T00:24:08;17.33;;;11.70;;
15354;SDS011;7777;52.254;9.618;2023-02-23T00:26:36;20.20;;;11.77;;
15354;SDS011;7777;52.254;9.618;2023-02-23T00:29:06;17.23;;;11.93;;
15354;SDS011;7777;52.254;9.618;2023-02-23T00:31:52;17.47;;;11.90;;
15354;SDS011;7777;52.254;9.618;2023-02-23T00:34:20;14.40;;;11.20;;
15354;SDS011;7777;52.254;9.618;2023-02-23T00:36:48;15.20;;;11.73;;
15354;SDS011;7777;52.254;9.618;2023-02-23T00:39:19;16.10;;;11.40;;
15354;SDS011;7777;52.254;9.618;2023-02-23T00:41:47;18.70;;;11.50;;
15354;SDS011;7777;52.254;9.618;2023-02-23T00:44:14;17.53;;;10.47;;
15354;SDS011;7777;52.254;9.618;2023-02-23T00:46:41;15.83;;;10.77;;
15354;SDS011;7777;52.254;9.618;2023-02-23T00:49:10;15.77;;;11.67;;
15354;SDS011;7777;52.254;9.618;2023-02-23T00:51:37;15.33;;;11.23;;
15354;SDS011;7777;52.254;9.618;2023-02-23T00:54:03;16.57;;;11.60;;
15354;SDS011;7777;52.254;9.618;2023-02-23T00:56:30;16.70;;;11.53;;
15354;SDS011;7777;52.254;9.618;2023-02-23T00:58:56;14.40;;;10.93;;
15354;SDS011;7777;52.254;9.618;2023-02-23T01:01:22;18.03;;;11.17;;
15354;SDS011;7777;52.254;9.618;2023-02-23T01:03:48;15.00;;;11.27;;
15354;SDS011;7777;52.254;9.618;2023-02-23T01:06:17;17.60;;;12.23;;
15354;SDS011;7777;52.254;9.618;2023-02-23T01:08:44;17.70;;;11.30;;
15354;SDS011;7777;52.254;9.618;2023-02-23T01:11:19;15.37;;;10.97;;
15354;SDS011;7777;52.254;9.618;2023-02-23T01:13:48;16.23;;;10.43;;
15354;SDS011;7777;52.254;9.618;2023-02-23T01:16:18;14.23;;;10.50;;
15354;SDS011;7777;52.254;9.618;2023-02-23T01:18:46;15.03;;;10.33;;
15354;SDS011;7777;52.254;9.618;2023-02-23T01:21:17;12.87;;;10.30;;
15354;SDS011;7777;52.254;9.618;2023-02-23T01:23:52;15.53;;;10.03;;
15354;SDS011;7777;52.254;9.618;2023-02-23T01:26:27;13.60;;;10.40;;
15354;SDS011;7777;52.254;9.618;2023-02-23T01:28:58;14.27;;;10.83;;
15354;SDS011;7777;52.254;9.618;2023-02-23T01:31:28;12.87;;;10.73;;
15354;SDS011;7777;52.254;9.618;2023-02-23T01:33:55;16.50;;;11.93;;
15354;SDS011;7777;52.254;9.618;2023-02-23T01:36:23;19.03;;;12.57;;
15354;SDS011;7777;52.254;9.618;2023-02-23T01:38:49;18.70;;;12.63;;
15354;SDS011;7777;52.254;9.618;2023-02-23T01:41:19;18.73;;;12.43;;
15354;SDS011;7777;52.254;9.618;2023-02-23T01:44:01;20.03;;;13.23;;
15354;SDS011;7777;52.254;9.618;2023-02-23T01:46:52;19.60;;;13.43;;
15354;SDS011;7777;52.254;9.618;2023-02-23T01:49:25;23.33;;;13.97;;
15354;SDS011;7777;52.254;9.618;2023-02-23T01:51:56;18.00;;;13.20;;
15354;SDS011;7777;52.254;9.618;2023-02-23T01:54:29;20.00;;;13.50;;
15354;SDS011;7777;52.254;9.618;2023-02-23T01:57:00;16.00;;;12.13;;
15354;SDS011;7777;52.254;9.618;2023-02-23T01:59:36;20.33;;;13.53;;
15354;SDS011;7777;52.254;9.618;2023-02-23T02:02:06;18.17;;;14.30;;
15354;SDS011;7777;52.254;9.618;2023-02-23T02:04:36;21.37;;;14.13;;
15354;SDS011;7777;52.254;9.618;2023-02-23T02:07:23;17.60;;;13.40;;
15354;SDS011;7777;52.254;9.618;2023-02-23T02:09:53;18.47;;;13.77;;
15354;SDS011;7777;52.254;9.618;2023-02-23T02:12:48;18.37;;;13.47;;
15354;SDS011;7777;52.254;9.618;2023-02-23T02:15:19;19.33;;;13.93;;
15354;SDS011;7777;52.254;9.618;2023-02-23T02:29:02;23.17;;;18.10;;
15354;SDS011;7777;52.254;9.618;2023-02-23T02:37:37;24.10;;;17.93;;
15354;SDS011;7777;52.254;9.618;2023-02-23T02:45:49;22.23;;;17.07;;
15354;SDS011;7777;52.254;9.618;2023-02-23T02:48:44;22.60;;;17.20;;
15354;SDS011;7777;52.254;9.618;2023-02-23T02:51:24;22.07;;;16.97;;
15354;SDS011;7777;52.254;9.618;2023-02-23T02:56:36;22.17;;;16.80;;
15354;SDS011;7777;52.254;9.618;2023-02-23T02:59:11;26.17;;;17.70;;
15354;SDS011;7777;52.254;9.618;2023-02-23T03:01:59;24.07;;;17.37;;
15354;SDS011;7777;52.254;9.618;2023-02-23T03:04:45;23.63;;;16.43;;
15354;SDS011;7777;52.254;9.618;2023-02-23T03:10:41;23.73;;;17.43;;
15354;SDS011;7777;52.254;9.618;2023-02-23T03:17:18;24.47;;;16.73;;
15354;SDS011;7777;52.254;9.618;2023-02-23T03:20:28;26.27;;;17.93;;
15354;SDS011;7777;52.254;9.618;2023-02-23T03:23:18;24.20;;;16.53;;
15354;SDS011;7777;52.254;9.618;2023-02-23T03:32:50;22.47;;;15.80;;
15354;SDS011;7777;52.254;9.618;2023-02-23T03:35:51;21.40;;;15.70;;
15354;SDS011;7777;52.254;9.618;2023-02-23T03:38:50;24.27;;;15.40;;
15354;SDS011;7777;52.254;9.618;2023-02-23T03:41:47;22.10;;;15.57;;
15354;SDS011;7777;52.254;9.618;2023-02-23T03:44:36;21.40;;;15.13;;
15354;SDS011;7777;52.254;9.618;2023-02-23T03:47:26;20.63;;;14.83;;
15354;SDS011;7777;52.254;9.618;2023-02-23T03:50:28;19.60;;;15.63;;
15354;SDS011;7777;52.254;9.618;2023-02-23T03:53:23;21.30;;;14.83;;
15354;SDS011;7777;52.254;9.618;2023-02-23T03:56:27;23.83;;;14.37;;
15354;SDS011;7777;52.254;9.618;2023-02-23T03:59:19;18.67;;;14.90;;
15354;SDS011;7777;52.254;9.618;2023-02-23T04:02:09;21.63;;;16.03;;
15354;SDS011;7777;52.254;9.618;2023-02-23T04:04:55;28.57;;;15.63;;
15354;SDS011;7777;52.254;9.618;2023-02-23T04:07:44;21.43;;;15.47;;
15354;SDS011;7777;52.254;9.618;2023-02-23T04:10:30;22.67;;;17.57;;
15354;SDS011;7777;52.254;9.618;2023-02-23T04:13:19;22.57;;;17.53;;
15354;SDS011;7777;52.254;9.618;2023-02-23T04:16:07;22.70;;;16.87;;
15354;SDS011;7777;52.254;9.618;2023-02-23T04:18:37;26.23;;;17.73;;
15354;SDS011;7777;52.254;9.618;2023-02-23T04:21:04;24.87;;;17.93;;
15354;SDS011;7777;52.254;9.618;2023-02-23T04:23:31;23.50;;;16.80;;
15354;SDS011;7777;52.254;9.618;2023-02-23T04:25:57;26.50;;;17.50;;
15354;SDS011;7777;52.254;9.618;2023-02-23T04:28:24;24.93;;;18.77;;
15354;SDS011;7777;52.254;9.618;2023-02-23T04:30:52;29.17;;;19.00;;
15354;SDS011;7777;52.254;9.618;2023-02-23T04:33:18;28.17;;;18.83;;
15354;SDS011;7777;52.254;9.618;2023-02-23T04:35:45;30.20;;;19.57;;
15354;SDS011;7777;52.254;9.618;2023-02-23T04:38:11;31.20;;;20.03;;
15354;SDS011;7777;52.254;9.618;2023-02-23T04:40:37;26.67;;;20.07;;
15354;SDS011;7777;52.254;9.618;2023-02-23T04:43:02;25.77;;;19.07;;
15354;SDS011;7777;52.254;9.618;2023-02-23T04:45:28;25.63;;;18.23;;
15354;SDS011;7777;52.254;9.618;2023-02-23T04:47:54;25.70;;;19.07;;
15354;SDS011;7777;52.254;9.618;2023-02-23T04:50:20;31.30;;;19.97;;
15354;SDS011;7777;52.254;9.618;2023-02-23T04:52:46;31.63;;;20.43;;
15354;SDS011;7777;52.254;9.618;2023-02-23T04:55:19;26.13;;;19.93;;
15354;SDS011;7777;52.254;9.618;2023-02-23T04:57:47;23.57;;;18.43;;
15354;SDS011;7777;52.254;9.618;2023-02-23T05:00:13;26.83;;;19.33;;
15354;SDS011;7777;52.254;9.618;2023-02-23T05:02:41;27.33;;;18.83;;
15354;SDS011;7777;52.254;9.618;2023-02-23T05:05:07;27.23;;;18.33;;
15354;SDS011;7777;52.254;9.618;2023-02-23T05:07:34;25.10;;;18.43;;
15354;SDS011;7777;52.254;9.618;2023-02-23T05:10:01;25.43;;;19.33;;
15354;SDS011;7777;52.254;9.618;2023-02-23T05:12:28;31.37;;;20.43;;
15354;SDS011;7777;52.254;9.618;2023-02-23T05:14:54;27.60;;;19.20;;
15354;SDS011;7777;52.254;9.618;2023-02-23T05:17:20;26.37;;;18.63;;
15354;SDS011;7777;52.254;9.618;2023-02-23T05:19:46;26.30;;;18.97;;
15354;SDS011;7777;52.254;9.618;2023-02-23T05:22:12;25.97;;;18.67;;
15354;SDS011;7777;52.254;9.618;2023-02-23T05:24:38;29.10;;;18.77;;
15354;SDS011;7777;52.254;9.618;2023-02-23T05:27:05;26.80;;;19.17;;
15354;SDS011;7777;52.254;9.618;2023-02-23T05:29:32;26.00;;;19.37;;
15354;SDS011;7777;52.254;9.618;2023-02-23T05:31:58;29.17;;;19.47;;
15354;SDS011;7777;52.254;9.618;2023-02-23T05:34:24;26.93;;;18.53;;
15354;SDS011;7777;52.254;9.618;2023-02-23T05:36:50;26.27;;;19.07;;
15354;SDS011;7777;52.254;9.618;2023-02-23T05:39:16;27.90;;;20.67;;
15354;SDS011;7777;52.254;9.618;2023-02-23T05:41:41;35.60;;;22.53;;
15354;SDS011;7777;52.254;9.618;2023-02-23T05:44:08;29.60;;;20.27;;
15354;SDS011;7777;52.254;9.618;2023-02-23T05:46:34;26.73;;;20.17;;
15354;SDS011;7777;52.254;9.618;2023-02-23T05:49:00;32.17;;;21.03;;
15354;SDS011;7777;52.254;9.618;2023-02-23T05:51:28;29.50;;;20.70;;
15354;SDS011;7777;52.254;9.618;2023-02-23T05:53:56;30.03;;;20.70;;
15354;SDS011;7777;52.254;9.618;2023-02-23T05:56:22;29.57;;;20.23;;
15354;SDS011;7777;52.254;9.618;2023-02-23T05:58:49;28.07;;;21.37;;
15354;SDS011;7777;52.254;9.618;2023-02-23T06:01:18;30.43;;;21.40;;
15354;SDS011;7777;52.254;9.618;2023-02-23T06:03:45;29.57;;;21.00;;
15354;SDS011;7777;52.254;9.618;2023-02-23T06:06:11;27.63;;;20.17;;
15354;SDS011;7777;52.254;9.618;2023-02-23T06:08:38;30.40;;;22.07;;
15354;SDS011;7777;52.254;9.618;2023-02-23T06:11:07;27.77;;;20.57;;
15354;SDS011;7777;52.254;9.618;2023-02-23T06:13:33;27.27;;;20.27;;
15354;SDS011;7777;52.254;9.618;2023-02-23T06:15:59;30.30;;;20.60;;
15354;SDS011;7777;52.254;9.618;2023-02-23T06:18:25;31.27;;;21.07;;
15354;SDS011;7777;52.254;9.618;2023-02-23T06:20:52;29.13;;;20.67;;
15354;SDS011;7777;52.254;9.618;2023-02-23T06:23:18;27.27;;;20.33;;
15354;SDS011;7777;52.254;9.618;2023-02-23T06:25:44;27.70;;;19.33;;
15354;SDS011;7777;52.254;9.618;2023-02-23T06:28:11;27.90;;;20.43;;
15354;SDS011;7777;52.254;9.618;2023-02-23T06:30:38;29.47;;;21.20;;
15354;SDS011;7777;52.254;9.618;2023-02-23T06:33:04;32.60;;;22.33;;
15354;SDS011;7777;52.254;9.618;2023-02-23T06:35:31;31.47;;;21.03;;
15354;SDS011;7777;52.254;9.618;2023-02-23T06:37:58;29.97;;;21.93;;
15354;SDS011;7777;52.254;9.618;2023-02-23T06:40:24;27.53;;;21.13;;
15354;SDS011;7777;52.254;9.618;2023-02-23T06:42:51;30.17;;;20.40;;
15354;SDS011;7777;52.254;9.618;2023-02-23T06:45:17;32.87;;;20.23;;
15354;SDS011;7777;52.254;9.618;2023-02-23T06:47:43;28.13;;;20.80;;
15354;SDS011;7777;52.254;9.618;2023-02-23T06:50:10;32.20;;;21.77;;
15354;SDS011;7777;52.254;9.618;2023-02-23T06:52:36;30.83;;;22.63;;
15354;SDS011;7777;52.254;9.618;2023-02-23T06:55:02;38.57;;;25.83;;
15354;SDS011;7777;52.254;9.618;2023-02-23T06:57:29;43.73;;;26.77;;
15354;SDS011;7777;52.254;9.618;2023-02-23T06:59:54;33.67;;;23.37;;
15354;SDS011;7777;52.254;9.618;2023-02-23T07:02:20;33.70;;;25.00;;
15354;SDS011;7777;52.254;9.618;2023-02-23T07:04:46;40.10;;;26.77;;
15354;SDS011;7777;52.254;9.618;2023-02-23T07:07:12;38.83;;;28.17;;
15354;SDS011;7777;52.254;9.618;2023-02-23T07:09:39;36.77;;;27.90;;
15354;SDS011;7777;52.254;9.618;2023-02-23T07:12:06;40.60;;;28.13;;
15354;SDS011;7777;52.254;9.618;2023-02-23T07:14:33;40.73;;;28.50;;
15354;SDS011;7777;52.254;9.618;2023-02-23T07:17:00;40.77;;;28.90;;
15354;SDS011;7777;52.254;9.618;2023-02-23T07:19:25;43.70;;;29.67;;
15354;SDS011;7777;52.254;9.618;2023-02-23T07:21:51;44.50;;;29.53;;
15354;SDS011;7777;52.254;9.618;2023-02-23T07:24:17;41.57;;;30.40;;
15354;SDS011;7777;52.254;9.618;2023-02-23T07:26:43;41.43;;;30.00;;
15354;SDS011;7777;52.254;9.618;2023-02-23T07:29:10;41.97;;;30.20;;
15354;SDS011;7777;52.254;9.618;2023-02-23T07:31:37;46.97;;;32.23;;
15354;SDS011;7777;52.254;9.618;2023-02-23T07:34:04;41.83;;;29.93;;
15354;SDS011;7777;52.254;9.618;2023-02-23T07:36:30;45.63;;;30.90;;
15354;SDS011;7777;52.254;9.618;2023-02-23T07:38:56;44.60;;;31.10;;
15354;SDS011;7777;52.254;9.618;2023-02-23T07:41:22;41.00;;;28.97;;
15354;SDS011;7777;52.254;9.618;2023-02-23T07:43:48;43.13;;;31.37;;
15354;SDS011;7777;52.254;9.618;2023-02-23T07:46:13;45.37;;;31.17;;
15354;SDS011;7777;52.254;9.618;2023-02-23T07:48:41;49.07;;;33.60;;
15354;SDS011;7777;52.254;9.618;2023-02-23T07:51:12;47.77;;;35.83;;
15354;SDS011;7777;52.254;9.618;2023-02-23T07:53:39;55.37;;;35.83;;
15354;SDS011;7777;52.254;9.618;2023-02-23T07:56:06;54.57;;;36.23;;
15354;SDS011;7777;52.254;9.618;2023-02-23T07:58:35;59.60;;;39.80;;
15354;SDS011;7777;52.254;9.618;2023-02-23T08:01:02;62.10;;;39.90;;
15354;SDS011;7777;52.254;9.618;2023-02-23T08:03:29;59.00;;;38.87;;
15354;SDS011;7777;52.254;9.618;2023-02-23T08:05:54;53.97;;;38.40;;
15354;SDS011;7777;52.254;9.618;2023-02-23T08:08:20;57.67;;;39.57;;
15354;SDS011;7777;52.254;9.618;2023-02-23T08:10:47;59.67;;;40.23;;
15354;SDS011;7777;52.254;9.618;2023-02-23T08:13:13;60.13;;;41.37;;
15354;SDS011;7777;52.254;9.618;2023-02-23T08:15:40;61.60;;;39.83;;
15354;SDS011;7777;52.254;9.618;2023-02-23T08:18:07;58.90;;;40.30;;
15354;SDS011;7777;52.254;9.618;2023-02-23T08:20:34;61.83;;;40.67;;
15354;SDS011;7777;52.254;9.618;2023-02-23T08:23:01;66.03;;;42.40;;
15354;SDS011;7777;52.254;9.618;2023-02-23T08:25:34;61.33;;;42.60;;
15354;SDS011;7777;52.254;9.618;2023-02-23T08:28:00;60.90;;;42.17;;
15354;SDS011;7777;52.254;9.618;2023-02-23T08:30:31;60.80;;;40.53;;
15354;SDS011;7777;52.254;9.618;2023-02-23T08:32:57;57.63;;;41.90;;
15354;SDS011;7777;52.254;9.618;2023-02-23T08:35:25;61.77;;;40.57;;
15354;SDS011;7777;52.254;9.618;2023-02-23T08:37:52;64.13;;;43.63;;
15354;SDS011;7777;52.254;9.618;2023-02-23T08:40:18;58.70;;;40.87;;
15354;SDS011;7777;52.254;9.618;2023-02-23T08:42:45;61.33;;;41.50;;
15354;SDS011;7777;52.254;9.618;2023-02-23T08:45:13;55.43;;;40.17;;
15354;SDS011;7777;52.254;9.618;2023-02-23T08:47:39;58.43;;;41.47;;
15354;SDS011;7777;52.254;9.618;2023-02-23T08:50:05;51.73;;;37.80;;
15354;SDS011;7777;52.254;9.618;2023-02-23T08:52:34;58.40;;;40.30;;
15354;SDS011;7777;52.254;9.618;2023-02-23T08:55:01;56.97;;;40.50;;
15354;SDS011;7777;52.254;9.618;2023-02-23T08:57:27;54.87;;;38.33;;
15354;SDS011;7777;52.254;9.618;2023-02-23T08:59:53;54.47;;;39.03;;
15354;SDS011;7777;52.254;9.618;2023-02-23T09:02:19;55.77;;;39.73;;
15354;SDS011;7777;52.254;9.618;2023-02-23T09:04:46;50.40;;;37.63;;
15354;SDS011;7777;52.254;9.618;2023-02-23T09:07:13;50.47;;;36.90;;
15354;SDS011;7777;52.254;9.618;2023-02-23T09:09:41;57.17;;;40.77;;
15354;SDS011;7777;52.254;9.618;2023-02-23T09:12:07;52.93;;;38.27;;
15354;SDS011;7777;52.254;9.618;2023-02-23T09:14:33;54.70;;;39.00;;
15354;SDS011;7777;52.254;9.618;2023-02-23T09:17:00;48.73;;;36.30;;
15354;SDS011;7777;52.254;9.618;2023-02-23T09:19:27;50.10;;;38.03;;
15354;SDS011;7777;52.254;9.618;2023-02-23T09:21:52;49.73;;;36.87;;
15354;SDS011;7777;52.254;9.618;2023-02-23T09:24:19;48.93;;;35.90;;
15354;SDS011;7777;52.254;9.618;2023-02-23T09:26:46;47.80;;;38.40;;
15354;SDS011;7777;52.254;9.618;2023-02-23T09:29:13;49.97;;;36.10;;
15354;SDS011;7777;52.254;9.618;2023-02-23T09:31:39;48.70;;;37.10;;
15354;SDS011;7777;52.254;9.618;2023-02-23T09:34:04;50.47;;;37.43;;
15354;SDS011;7777;52.254;9.618;2023-02-23T09:36:33;52.53;;;36.43;;
15354;SDS011;7777;52.254;9.618;2023-02-23T09:38:59;48.07;;;36.13;;
15354;SDS011;7777;52.254;9.618;2023-02-23T09:44:28;48.90;;;35.63;;
15354;SDS011;7777;52.254;9.618;2023-02-23T09:50:05;49.00;;;36.40;;
15354;SDS011;7777;52.254;9.618;2023-02-23T09:52:43;50.33;;;36.87;;
15354;SDS011;7777;52.254;9.618;2023-02-23T09:55:12;51.53;;;36.77;;
15354;SDS011;7777;52.254;9.618;2023-02-23T09:57:40;45.00;;;33.77;;
15354;SDS011;7777;52.254;9.618;2023-02-23T10:00:12;45.37;;;32.27;;
15354;SDS011;7777;52.254;9.618;2023-02-23T10:05:16;49.83;;;34.60;;
15354;SDS011;7777;52.254;9.618;2023-02-23T10:07:45;44.33;;;33.73;;
15354;SDS011;7777;52.254;9.618;2023-02-23T10:10:23;47.63;;;34.90;;
15354;SDS011;7777;52.254;9.618;2023-02-23T10:13:25;48.30;;;32.50;;
15354;SDS011;7777;52.254;9.618;2023-02-23T10:16:29;50.17;;;35.60;;
15354;SDS011;7777;52.254;9.618;2023-02-23T10:22:31;45.73;;;32.93;;
15354;SDS011;7777;52.254;9.618;2023-02-23T10:25:01;49.63;;;35.33;;
15354;SDS011;7777;52.254;9.618;2023-02-23T10:27:37;47.07;;;34.20;;
15354;SDS011;7777;52.254;9.618;2023-02-23T10:30:16;50.77;;;35.57;;
15354;SDS011;7777;52.254;9.618;2023-02-23T10:32:58;44.03;;;32.93;;
15354;SDS011;7777;52.254;9.618;2023-02-23T10:35:46;47.73;;;33.43;;
15354;SDS011;7777;52.254;9.618;2023-02-23T10:38:16;48.47;;;33.33;;
15354;SDS011;7777;52.254;9.618;2023-02-23T10:40:50;45.60;;;32.60;;
15354;SDS011;7777;52.254;9.618;2023-02-23T10:43:19;49.67;;;33.07;;
15354;SDS011;7777;52.254;9.618;2023-02-23T10:45:49;46.63;;;33.50;;
15354;SDS011;7777;52.254;9.618;2023-02-23T10:48:17;43.13;;;31.97;;
15354;SDS011;7777;52.254;9.618;2023-02-23T10:50:48;41.93;;;31.03;;
15354;SDS011;7777;52.254;9.618;2023-02-23T10:56:02;45.23;;;31.50;;
15354;SDS011;7777;52.254;9.618;2023-02-23T10:58:51;48.73;;;33.23;;
15354;SDS011;7777;52.254;9.618;2023-02-23T11:01:39;45.37;;;30.77;;
15354;SDS011;7777;52.254;9.618;2023-02-23T11:06:50;44.50;;;31.33;;
15354;SDS011;7777;52.254;9.618;2023-02-23T11:09:37;42.73;;;31.90;;
15354;SDS011;7777;52.254;9.618;2023-02-23T11:14:55;47.03;;;32.00;;
15354;SDS011;7777;52.254;9.618;2023-02-23T11:17:26;47.73;;;32.47;;
15354;SDS011;7777;52.254;9.618;2023-02-23T11:20:00;45.33;;;31.57;;
15354;SDS011;7777;52.254;9.618;2023-02-23T11:22:49;44.37;;;30.53;;
15354;SDS011;7777;52.254;9.618;2023-02-23T11:25:20;43.10;;;30.03;;
15354;SDS011;7777;52.254;9.618;2023-02-23T11:27:52;48.37;;;31.37;;
15354;SDS011;7777;52.254;9.618;2023-02-23T11:30:21;43.93;;;29.40;;
15354;SDS011;7777;52.254;9.618;2023-02-23T11:32:56;41.60;;;29.30;;
15354;SDS011;7777;52.254;9.618;2023-02-23T11:35:33;42.53;;;27.83;;
15354;SDS011;7777;52.254;9.618;2023-02-23T11:38:03;38.23;;;27.90;;
15354;SDS011;7777;52.254;9.618;2023-02-23T11:43:48;35.20;;;25.27;;
15354;SDS011;7777;52.254;9.618;2023-02-23T11:46:15;37.47;;;26.67;;
15354;SDS011;7777;52.254;9.618;2023-02-23T11:48:52;40.03;;;25.40;;
15354;SDS011;7777;52.254;9.618;2023-02-23T11:51:31;34.47;;;24.90;;
15354;SDS011;7777;52.254;9.618;2023-02-23T11:54:02;40.57;;;26.87;;
15354;SDS011;7777;52.254;9.618;2023-02-23T11:56:30;34.83;;;24.37;;
15354;SDS011;7777;52.254;9.618;2023-02-23T11:59:02;33.23;;;23.47;;
15354;SDS011;7777;52.254;9.618;2023-02-23T12:04:22;30.37;;;21.23;;
15354;SDS011;7777;52.254;9.618;2023-02-23T12:10:15;31.37;;;20.50;;
15354;SDS011;7777;52.254;9.618;2023-02-23T12:18:53;28.13;;;20.90;;
15354;SDS011;7777;52.254;9.618;2023-02-23T12:22:14;27.33;;;20.17;;
15354;SDS011;7777;52.254;9.618;2023-02-23T12:24:49;28.77;;;20.63;;
15354;SDS011;7777;52.254;9.618;2023-02-23T12:27:39;29.73;;;21.90;;
15354;SDS011;7777;52.254;9.618;2023-02-23T12:30:17;27.43;;;20.40;;
15354;SDS011;7777;52.254;9.618;2023-02-23T12:33:14;28.83;;;21.17;;
15354;SDS011;7777;52.254;9.618;2023-02-23T12:35:58;29.20;;;21.00;;
15354;SDS011;7777;52.254;9.618;2023-02-23T12:38:38;26.37;;;19.73;;
15354;SDS011;7777;52.254;9.618;2023-02-23T12:41:34;28.10;;;20.63;;
15354;SDS011;7777;52.254;9.618;2023-02-23T12:44:29;29.13;;;21.33;;
15354;SDS011;7777;52.254;9.618;2023-02-23T13:02:00;36.77;;;26.53;;
15354;SDS011;7777;52.254;9.618;2023-02-23T13:19:26;44.60;;;26.97;;
15354;SDS011;7777;52.254;9.618;2023-02-23T13:21:27;49.03;;;26.30;;
15354;SDS011;7777;52.254;9.618;2023-02-23T13:24:07;47.63;;;27.37;;
15354;SDS011;7777;52.254;9.618;2023-02-23T13:26:48;53.40;;;27.20;;
15354;SDS011;7777;52.254;9.618;2023-02-23T13:32:08;42.90;;;24.77;;
15354;SDS011;7777;52.254;9.618;2023-02-23T13:34:49;41.40;;;22.43;;
15354;SDS011;7777;52.254;9.618;2023-02-23T13:37:26;38.87;;;23.17;;
15354;SDS011;7777;52.254;9.618;2023-02-23T13:48:55;36.10;;;21.50;;
15354;SDS011;7777;52.254;9.618;2023-02-23T13:51:43;38.43;;;22.63;;
15354;SDS011;7777;52.254;9.618;2023-02-23T13:56:58;38.83;;;21.37;;
15354;SDS011;7777;52.254;9.618;2023-02-23T13:59:26;39.67;;;22.23;;
15354;SDS011;7777;52.254;9.618;2023-02-23T14:05:03;39.60;;;24.67;;
15354;SDS011;7777;52.254;9.618;2023-02-23T14:07:42;40.70;;;24.13;;
15354;SDS011;7777;52.254;9.618;2023-02-23T14:10:21;38.90;;;22.07;;
15354;SDS011;7777;52.254;9.618;2023-02-23T14:20:51;36.90;;;22.17;;
15354;SDS011;7777;52.254;9.618;2023-02-23T14:34:47;28.60;;;17.73;;
15354;SDS011;7777;52.254;9.618;2023-02-23T14:37:27;30.23;;;17.00;;
15354;SDS011;7777;52.254;9.618;2023-02-23T14:39:55;26.20;;;15.97;;
15354;SDS011;7777;52.254;9.618;2023-02-23T14:42:29;31.50;;;16.97;;
15354;SDS011;7777;52.254;9.618;2023-02-23T14:44:57;26.73;;;16.53;;
15354;SDS011;7777;52.254;9.618;2023-02-23T14:47:30;25.87;;;14.90;;
15354;SDS011;7777;52.254;9.618;2023-02-23T14:50:09;27.03;;;16.27;;
15354;SDS011;7777;52.254;9.618;2023-02-23T14:52:42;26.90;;;16.57;;
15354;SDS011;7777;52.254;9.618;2023-02-23T14:57:35;32.47;;;20.33;;
15354;SDS011;7777;52.254;9.618;2023-02-23T15:00:14;32.90;;;19.33;;
15354;SDS011;7777;52.254;9.618;2023-02-23T15:02:58;29.27;;;18.80;;
15354;SDS011;7777;52.254;9.618;2023-02-23T15:05:55;26.47;;;15.63;;
15354;SDS011;7777;52.254;9.618;2023-02-23T15:08:22;28.97;;;17.63;;
15354;SDS011;7777;52.254;9.618;2023-02-23T15:11:24;30.03;;;17.63;;
15354;SDS011;7777;52.254;9.618;2023-02-23T15:13:47;27.00;;;15.90;;
15354;SDS011;7777;52.254;9.618;2023-02-23T15:16:20;27.37;;;16.17;;
15354;SDS011;7777;52.254;9.618;2023-02-23T15:18:53;26.50;;;15.43;;
15354;SDS011;7777;52.254;9.618;2023-02-23T15:21:20;27.43;;;16.83;;
15354;SDS011;7777;52.254;9.618;2023-02-23T15:23:48;26.30;;;15.27;;
15354;SDS011;7777;52.254;9.618;2023-02-23T15:26:18;23.70;;;14.70;;
15354;SDS011;7777;52.254;9.618;2023-02-23T15:31:35;28.13;;;16.80;;
15354;SDS011;7777;52.254;9.618;2023-02-23T15:34:06;30.17;;;17.87;;
15354;SDS011;7777;52.254;9.618;2023-02-23T15:36:35;35.07;;;18.67;;
15354;SDS011;7777;52.254;9.618;2023-02-23T15:39:04;31.30;;;18.50;;
15354;SDS011;7777;52.254;9.618;2023-02-23T15:41:33;30.60;;;19.10;;
15354;SDS011;7777;52.254;9.618;2023-02-23T15:46:43;27.97;;;17.83;;
15354;SDS011;7777;52.254;9.618;2023-02-23T15:49:16;30.83;;;17.90;;
15354;SDS011;7777;52.254;9.618;2023-02-23T15:51:48;38.30;;;19.67;;
15354;SDS011;7777;52.254;9.618;2023-02-23T15:54:18;33.90;;;19.07;;
15354;SDS011;7777;52.254;9.618;2023-02-23T15:56:55;40.40;;;20.73;;
15354;SDS011;7777;52.254;9.618;2023-02-23T15:59:28;45.37;;;20.87;;
15354;SDS011;7777;52.254;9.618;2023-02-23T16:02:00;37.27;;;20.97;;
15354;SDS011;7777;52.254;9.618;2023-02-23T16:04:32;37.40;;;20.70;;
15354;SDS011;7777;52.254;9.618;2023-02-23T16:09:47;39.30;;;19.70;;
15354;SDS011;7777;52.254;9.618;2023-02-23T16:12:28;37.57;;;19.80;;
15354;SDS011;7777;52.254;9.618;2023-02-23T16:14:58;44.03;;;20.37;;
15354;SDS011;7777;52.254;9.618;2023-02-23T16:17:43;37.20;;;18.17;;
15354;SDS011;7777;52.254;9.618;2023-02-23T16:23:06;38.90;;;18.60;;
15354;SDS011;7777;52.254;9.618;2023-02-23T16:25:56;33.60;;;17.43;;
15354;SDS011;7777;52.254;9.618;2023-02-23T16:28:26;36.33;;;16.00;;
15354;SDS011;7777;52.254;9.618;2023-02-23T16:30:57;34.00;;;15.73;;
15354;SDS011;7777;52.254;9.618;2023-02-23T16:36:31;41.27;;;20.43;;
15354;SDS011;7777;52.254;9.618;2023-02-23T16:39:08;32.07;;;17.33;;
15354;SDS011;7777;52.254;9.618;2023-02-23T16:41:36;37.63;;;17.33;;
15354;SDS011;7777;52.254;9.618;2023-02-23T16:44:03;41.37;;;21.93;;
15354;SDS011;7777;52.254;9.618;2023-02-23T16:49:17;39.37;;;19.50;;
15354;SDS011;7777;52.254;9.618;2023-02-23T16:51:43;38.33;;;19.90;;
15354;SDS011;7777;52.254;9.618;2023-02-23T16:54:09;37.07;;;18.97;;
15354;SDS011;7777;52.254;9.618;2023-02-23T16:56:39;34.40;;;17.20;;
15354;SDS011;7777;52.254;9.618;2023-02-23T16:59:05;32.37;;;15.77;;
15354;SDS011;7777;52.254;9.618;2023-02-23T17:01:33;34.93;;;16.67;;
15354;SDS011;7777;52.254;9.618;2023-02-23T17:04:00;33.30;;;14.87;;
15354;SDS011;7777;52.254;9.618;2023-02-23T17:06:26;36.30;;;16.80;;
15354;SDS011;7777;52.254;9.618;2023-02-23T17:08:54;30.20;;;15.90;;
15354;SDS011;7777;52.254;9.618;2023-02-23T17:11:20;29.97;;;14.77;;
15354;SDS011;7777;52.254;9.618;2023-02-23T17:13:46;34.63;;;18.93;;
15354;SDS011;7777;52.254;9.618;2023-02-23T17:16:12;34.93;;;18.10;;
15354;SDS011;7777;52.254;9.618;2023-02-23T17:18:38;36.43;;;19.07;;
15354;SDS011;7777;52.254;9.618;2023-02-23T17:21:05;39.07;;;19.50;;
15354;SDS011;7777;52.254;9.618;2023-02-23T17:23:35;34.03;;;18.30;;
15354;SDS011;7777;52.254;9.618;2023-02-23T17:26:12;38.80;;;22.07;;
15354;SDS011;7777;52.254;9.618;2023-02-23T17:28:39;37.63;;;21.50;;
15354;SDS011;7777;52.254;9.618;2023-02-23T17:31:05;39.33;;;20.00;;
15354;SDS011;7777;52.254;9.618;2023-02-23T17:33:31;36.73;;;17.87;;
15354;SDS011;7777;52.254;9.618;2023-02-23T17:36:00;35.77;;;19.00;;
15354;SDS011;7777;52.254;9.618;2023-02-23T17:38:29;32.30;;;16.97;;
15354;SDS011;7777;52.254;9.618;2023-02-23T17:41:01;29.60;;;15.37;;
15354;SDS011;7777;52.254;9.618;2023-02-23T17:43:33;32.53;;;16.17;;
15354;SDS011;7777;52.254;9.618;2023-02-23T17:46:01;27.77;;;15.50;;